Terminal Aerodrome Forecast
Issued by NWS

Home | Current Version | Previous Version | Text Only | Print | Product List | Glossary On
Versions: 1 2 3 4 5 6 7 8 9 10 11 12 13 14 15 16 17 18 19 20 21 22 23
000
FTUS45 KBOI 281120
TAFBKE
TAF
KBKE 281120Z 2812/2912 VRB03KT 1/4SM FZFG VV002
     FM281900 VRB03KT 6SM BR FEW015
     FM290300 VRB03KT 3SM BR BKN015=

USA.gov is the U.S. government's official web portal to all federal, state and local government web resources and services.